Climatologie pour Saint-Brevin les Pins
Jour • Résumé pour mai 7, 2017 Système :  Métrique    Anglais   Mixte
« - 1 jour
+ 1 jour »
Jour Semaine Mois Année Personnalisé
  Maximum : Minimum : Moyenne :
Température sous abri : 17.4 °C 10.7 °C 13.6 °C
Point de rosée : 13.2 °C 9.9 °C 11.4 °C
Humidité : 96 % 73 % 87 %
Vitesse du vent : 20.9 km/h 0.0 km/h 6.6 km/h
Rafale : 29.0 km/h - -
Direction :- - WNW
Pression : 1023.2 hPa 1017.2 hPa -
Précipitations : 0.0 mm    
Historical Graphs
 
 
Tableau de données pour mai 7, 2017
Heure Tempé Pt rosée Pression Vent Vitesse Rafale Humidité Taux pluie (/hr) Soleil
00:00 12.9 °C 11.5 °C 1017.2 hPa NW 4.8 km/h 24.1 km/h 91 % 0.0 mm 0 W/m2
00:10 13.0 °C 11.6 °C 1017.5 hPa West 17.7 km/h 20.9 km/h 91 % 0.0 mm 0 W/m2
00:15 13.0 °C 11.6 °C 1017.5 hPa WNW 11.3 km/h 20.9 km/h 91 % 0.0 mm 0 W/m2
00:20 12.9 °C 11.5 °C 1017.5 hPa WNW 16.1 km/h 22.5 km/h 91 % 0.0 mm 0 W/m2
00:25 12.8 °C 11.4 °C 1017.5 hPa WNW 9.7 km/h 24.1 km/h 91 % 0.0 mm 0 W/m2
00:30 12.8 °C 11.6 °C 1017.5 hPa West 8.0 km/h 24.1 km/h 92 % 0.0 mm 0 W/m2
00:35 12.8 °C 11.4 °C 1017.5 hPa West 8.0 km/h 22.5 km/h 91 % 0.0 mm 0 W/m2
00:40 12.7 °C 11.5 °C 1017.5 hPa NNW 6.4 km/h 24.1 km/h 92 % 0.0 mm 0 W/m2
00:45 12.6 °C 11.3 °C 1017.5 hPa WNW 6.4 km/h 24.1 km/h 92 % 0.0 mm 0 W/m2
00:50 12.4 °C 11.2 °C 1017.5 hPa North 3.2 km/h 16.1 km/h 92 % 0.0 mm 0 W/m2
00:55 12.3 °C 11.1 °C 1017.5 hPa NW 1.6 km/h 16.1 km/h 92 % 0.0 mm 0 W/m2
01:00 12.3 °C 11.1 °C 1017.5 hPa NW 8.0 km/h 22.5 km/h 92 % 0.0 mm 0 W/m2
01:05 12.3 °C 11.2 °C 1017.8 hPa West 12.9 km/h 22.5 km/h 93 % 0.0 mm 0 W/m2
01:10 12.3 °C 11.2 °C 1017.8 hPa WNW 4.8 km/h 17.7 km/h 93 % 0.0 mm 0 W/m2
01:15 12.2 °C 11.1 °C 1017.8 hPa NW 4.8 km/h 17.7 km/h 93 % 0.0 mm 0 W/m2
01:20 12.2 °C 11.1 °C 1017.8 hPa WNW 4.8 km/h 14.5 km/h 93 % 0.0 mm 0 W/m2
01:25 12.0 °C 10.9 °C 1017.8 hPa NW 4.8 km/h 12.9 km/h 93 % 0.0 mm 0 W/m2
01:30 12.0 °C 10.9 °C 1018.2 hPa WNW 6.4 km/h 12.9 km/h 93 % 0.0 mm 0 W/m2
01:35 11.9 °C 10.8 °C 1018.2 hPa Calm   11.3 km/h 93 % 0.0 mm 0 W/m2
01:40 11.9 °C 11.0 °C 1018.2 hPa West 8.0 km/h 11.3 km/h 94 % 0.0 mm 0 W/m2
01:45 11.9 °C 11.0 °C 1018.2 hPa West 6.4 km/h 14.5 km/h 94 % 0.0 mm 0 W/m2
01:50 11.8 °C 10.7 °C 1018.2 hPa NW 4.8 km/h 14.5 km/h 93 % 0.0 mm 0 W/m2
01:55 11.8 °C 10.7 °C 1018.5 hPa WNW 9.7 km/h 14.5 km/h 93 % 0.0 mm 0 W/m2
02:00 11.7 °C 10.6 °C 1018.5 hPa NW 8.0 km/h 14.5 km/h 93 % 0.0 mm 0 W/m2
02:05 11.7 °C 10.7 °C 1018.5 hPa West 1.6 km/h 9.7 km/h 94 % 0.0 mm 0 W/m2
02:10 11.4 °C 10.3 °C 1018.5 hPa West 1.6 km/h 8.0 km/h 93 % 0.0 mm 0 W/m2
02:15 11.3 °C 10.3 °C 1018.5 hPa WNW 3.2 km/h 11.3 km/h 94 % 0.0 mm 0 W/m2
02:20 11.2 °C 10.2 °C 1018.5 hPa West 4.8 km/h 11.3 km/h 94 % 0.0 mm 0 W/m2
02:25 11.1 °C 10.1 °C 1018.5 hPa West 1.6 km/h 6.4 km/h 94 % 0.0 mm 0 W/m2
02:30 10.9 °C 10.0 °C 1018.8 hPa Calm   4.8 km/h 94 % 0.0 mm 0 W/m2
02:35 10.8 °C 10.1 °C 1018.5 hPa Calm   6.4 km/h 95 % 0.0 mm 0 W/m2
02:40 10.9 °C 10.2 °C 1018.5 hPa NW 4.8 km/h 8.0 km/h 95 % 0.0 mm 0 W/m2
02:45 11.0 °C 10.2 °C 1018.5 hPa Calm   8.0 km/h 95 % 0.0 mm 0 W/m2
02:50 11.1 °C 10.3 °C 1018.5 hPa Calm   8.0 km/h 95 % 0.0 mm 0 W/m2
02:55 11.2 °C 10.6 °C 1018.8 hPa Calm   8.0 km/h 96 % 0.0 mm 0 W/m2
03:00 11.3 °C 10.7 °C 1018.8 hPa Calm   4.8 km/h 96 % 0.0 mm 0 W/m2
03:05 11.4 °C 10.8 °C 1018.8 hPa Calm   8.0 km/h 96 % 0.0 mm 0 W/m2
03:10 11.6 °C 10.9 °C 1018.8 hPa WNW 1.6 km/h 8.0 km/h 96 % 0.0 mm 0 W/m2
03:15 11.7 °C 11.1 °C 1018.8 hPa Calm   6.4 km/h 96 % 0.0 mm 0 W/m2
03:20 11.7 °C 10.9 °C 1018.8 hPa WNW 1.6 km/h 6.4 km/h 95 % 0.0 mm 0 W/m2
03:25 11.8 °C 11.0 °C 1018.8 hPa WNW 1.6 km/h 6.4 km/h 95 % 0.0 mm 0 W/m2
03:30 11.8 °C 11.0 °C 1018.8 hPa WNW 3.2 km/h 6.4 km/h 95 % 0.0 mm 0 W/m2
03:35 11.8 °C 11.1 °C 1018.8 hPa WNW 3.2 km/h 8.0 km/h 95 % 0.0 mm 0 W/m2
03:40 11.9 °C 11.1 °C 1018.8 hPa WNW 4.8 km/h 8.0 km/h 95 % 0.0 mm 0 W/m2
03:45 11.9 °C 11.0 °C 1019.2 hPa Calm   9.7 km/h 94 % 0.0 mm 0 W/m2
03:50 11.9 °C 11.0 °C 1018.8 hPa Calm   9.7 km/h 94 % 0.0 mm 0 W/m2
03:55 11.9 °C 11.0 °C 1019.2 hPa Calm   4.8 km/h 94 % 0.0 mm 0 W/m2
04:00 11.9 °C 11.0 °C 1019.2 hPa Calm   6.4 km/h 94 % 0.0 mm 0 W/m2
04:05 12.0 °C 11.1 °C 1018.8 hPa WNW 1.6 km/h 6.4 km/h 94 % 0.0 mm 0 W/m2
04:10 12.1 °C 11.1 °C 1019.2 hPa Calm   8.0 km/h 94 % 0.0 mm 0 W/m2
04:15 12.1 °C 11.1 °C 1019.2 hPa WNW 4.8 km/h 8.0 km/h 94 % 0.0 mm 0 W/m2
04:20 12.1 °C 11.1 °C 1019.2 hPa NW 1.6 km/h 8.0 km/h 94 % 0.0 mm 0 W/m2
04:25 12.1 °C 11.1 °C 1019.2 hPa NW 1.6 km/h 6.4 km/h 94 % 0.0 mm 0 W/m2
04:35 12.1 °C 11.1 °C 1019.2 hPa Calm   6.4 km/h 94 % 0.0 mm 0 W/m2
04:40 12.1 °C 11.0 °C 1019.2 hPa WNW 4.8 km/h 9.7 km/h 93 % 0.0 mm 0 W/m2
04:45 12.1 °C 11.0 °C 1019.2 hPa WNW 9.7 km/h 11.3 km/h 93 % 0.0 mm 0 W/m2
04:50 12.1 °C 11.0 °C 1019.2 hPa NW 4.8 km/h 11.3 km/h 93 % 0.0 mm 0 W/m2
04:55 12.2 °C 10.9 °C 1019.2 hPa WNW 1.6 km/h 9.7 km/h 92 % 0.0 mm 0 W/m2
05:00 12.3 °C 10.9 °C 1019.2 hPa WNW 3.2 km/h 9.7 km/h 91 % 0.0 mm 0 W/m2
05:05 12.3 °C 10.9 °C 1019.2 hPa West 4.8 km/h 8.0 km/h 91 % 0.0 mm 0 W/m2
05:10 12.3 °C 10.9 °C 1019.2 hPa West 4.8 km/h 8.0 km/h 91 % 0.0 mm 0 W/m2
05:20 12.6 °C 11.1 °C 1019.2 hPa West 8.0 km/h 12.9 km/h 91 % 0.0 mm 0 W/m2
05:25 12.8 °C 11.4 °C 1019.2 hPa West 4.8 km/h 16.1 km/h 91 % 0.0 mm 0 W/m2
05:30 12.9 °C 11.6 °C 1019.2 hPa WNW 3.2 km/h 16.1 km/h 92 % 0.0 mm 0 W/m2
05:35 12.9 °C 11.6 °C 1019.2 hPa NW 12.9 km/h 16.1 km/h 92 % 0.0 mm 0 W/m2
05:40 12.9 °C 11.6 °C 1019.2 hPa West 4.8 km/h 16.1 km/h 92 % 0.0 mm 0 W/m2
05:45 12.8 °C 11.7 °C 1019.2 hPa WNW 6.4 km/h 16.1 km/h 93 % 0.0 mm 0 W/m2
05:50 12.8 °C 11.7 °C 1019.2 hPa WNW 9.7 km/h 16.1 km/h 93 % 0.0 mm 0 W/m2
05:55 12.8 °C 11.7 °C 1019.2 hPa WNW 4.8 km/h 16.1 km/h 93 % 0.0 mm 0 W/m2
06:00 12.8 °C 11.7 °C 1019.2 hPa West 6.4 km/h 11.3 km/h 93 % 0.0 mm 0 W/m2
06:05 12.8 °C 11.7 °C 1019.2 hPa West 4.8 km/h 11.3 km/h 93 % 0.0 mm 0 W/m2
06:10 12.7 °C 11.6 °C 1019.2 hPa WNW 4.8 km/h 9.7 km/h 93 % 0.0 mm 0 W/m2
06:15 12.5 °C 11.4 °C 1019.2 hPa West 3.2 km/h 9.7 km/h 93 % 0.0 mm 0 W/m2
06:20 12.3 °C 11.2 °C 1019.2 hPa WNW 8.0 km/h 12.9 km/h 93 % 0.0 mm 0 W/m2
06:25 12.2 °C 11.1 °C 1019.2 hPa Calm   12.9 km/h 93 % 0.0 mm 0 W/m2
06:30 11.9 °C 10.8 °C 1019.2 hPa WNW 6.4 km/h 9.7 km/h 93 % 0.0 mm 0 W/m2
06:35 11.8 °C 10.7 °C 1019.2 hPa WNW 4.8 km/h 9.7 km/h 93 % 0.0 mm 0 W/m2
06:40 11.7 °C 10.7 °C 1019.5 hPa WNW 4.8 km/h 9.7 km/h 94 % 0.0 mm 0 W/m2
06:45 11.7 °C 10.8 °C 1019.5 hPa West 4.8 km/h 11.3 km/h 94 % 0.0 mm 0 W/m2
06:50 11.7 °C 10.8 °C 1019.5 hPa NW 3.2 km/h 11.3 km/h 94 % 0.0 mm 5 W/m2
06:55 11.8 °C 11.0 °C 1019.5 hPa West 8.0 km/h 12.9 km/h 95 % 0.0 mm 7 W/m2
07:00 11.8 °C 11.0 °C 1019.5 hPa WNW 3.2 km/h 12.9 km/h 95 % 0.0 mm 9 W/m2
07:05 11.8 °C 11.0 °C 1019.5 hPa WNW 6.4 km/h 11.3 km/h 95 % 0.0 mm 12 W/m2
07:10 11.7 °C 10.8 °C 1019.9 hPa NW 8.0 km/h 11.3 km/h 94 % 0.0 mm 16 W/m2
07:15 11.6 °C 10.6 °C 1019.9 hPa WNW 3.2 km/h 11.3 km/h 94 % 0.0 mm 18 W/m2
07:20 11.7 °C 10.9 °C 1019.9 hPa WNW 6.4 km/h 11.3 km/h 95 % 0.0 mm 19 W/m2
07:25 11.7 °C 10.9 °C 1019.9 hPa NW 8.0 km/h 9.7 km/h 95 % 0.0 mm 16 W/m2
07:30 11.7 °C 10.9 °C 1020.2 hPa NW 4.8 km/h 16.1 km/h 95 % 0.0 mm 19 W/m2
07:35 11.8 °C 11.1 °C 1020.2 hPa WNW 4.8 km/h 16.1 km/h 95 % 0.0 mm 25 W/m2
07:40 11.9 °C 11.1 °C 1020.2 hPa West 6.4 km/h 17.7 km/h 95 % 0.0 mm 25 W/m2
07:45 11.9 °C 11.1 °C 1020.2 hPa Calm   17.7 km/h 95 % 0.0 mm 26 W/m2
07:50 11.9 °C 11.1 °C 1020.2 hPa WNW 6.4 km/h 9.7 km/h 95 % 0.0 mm 30 W/m2
07:55 11.8 °C 11.1 °C 1020.2 hPa NW 6.4 km/h 11.3 km/h 95 % 0.0 mm 39 W/m2
08:00 11.9 °C 11.3 °C 1020.2 hPa NW 9.7 km/h 12.9 km/h 96 % 0.0 mm 37 W/m2
08:05 12.2 °C 11.4 °C 1020.5 hPa NW 4.8 km/h 12.9 km/h 95 % 0.0 mm 49 W/m2
08:10 12.4 °C 11.7 °C 1020.5 hPa West 8.0 km/h 12.9 km/h 95 % 0.0 mm 77 W/m2
08:15 12.7 °C 11.9 °C 1020.5 hPa WNW 6.4 km/h 12.9 km/h 95 % 0.0 mm 69 W/m2
08:20 12.8 °C 11.9 °C 1020.5 hPa WNW 3.2 km/h 16.1 km/h 94 % 0.0 mm 118 W/m2
08:25 13.1 °C 11.9 °C 1020.5 hPa WSW 3.2 km/h 16.1 km/h 93 % 0.0 mm 128 W/m2
08:30 13.1 °C 12.0 °C 1020.9 hPa WNW 4.8 km/h 16.1 km/h 93 % 0.0 mm 113 W/m2
08:35 13.2 °C 12.0 °C 1020.9 hPa NW 12.9 km/h 16.1 km/h 92 % 0.0 mm 179 W/m2
08:40 13.2 °C 11.8 °C 1020.9 hPa WNW 11.3 km/h 19.3 km/h 91 % 0.0 mm 98 W/m2
08:45 13.3 °C 11.8 °C 1020.9 hPa West 4.8 km/h 19.3 km/h 91 % 0.0 mm 116 W/m2
08:50 13.3 °C 11.7 °C 1020.9 hPa WNW 9.7 km/h 19.3 km/h 90 % 0.0 mm 114 W/m2
08:55 13.4 °C 11.8 °C 1020.9 hPa WNW 9.7 km/h 19.3 km/h 90 % 0.0 mm 118 W/m2
09:00 13.4 °C 11.6 °C 1020.9 hPa West 12.9 km/h 16.1 km/h 89 % 0.0 mm 128 W/m2
09:05 13.5 °C 11.9 °C 1021.2 hPa WNW 4.8 km/h 16.1 km/h 90 % 0.0 mm 135 W/m2
09:10 13.6 °C 11.9 °C 1021.2 hPa West 9.7 km/h 17.7 km/h 90 % 0.0 mm 158 W/m2
09:15 13.7 °C 12.1 °C 1021.2 hPa WNW 6.4 km/h 17.7 km/h 90 % 0.0 mm 163 W/m2
09:20 13.8 °C 12.1 °C 1021.2 hPa NW 9.7 km/h 12.9 km/h 89 % 0.0 mm 163 W/m2
09:25 13.8 °C 11.9 °C 1021.2 hPa WNW 12.9 km/h 17.7 km/h 88 % 0.0 mm 190 W/m2
09:30 13.9 °C 11.9 °C 1021.2 hPa WNW 8.0 km/h 17.7 km/h 88 % 0.0 mm 213 W/m2
09:35 14.0 °C 12.0 °C 1021.2 hPa NW 8.0 km/h 17.7 km/h 88 % 0.0 mm 218 W/m2
09:45 14.3 °C 12.1 °C 1021.2 hPa WNW 8.0 km/h 16.1 km/h 87 % 0.0 mm 257 W/m2
09:50 14.3 °C 12.0 °C 1021.2 hPa WNW 3.2 km/h 16.1 km/h 86 % 0.0 mm 243 W/m2
09:55 14.4 °C 12.1 °C 1021.2 hPa WNW 8.0 km/h 14.5 km/h 86 % 0.0 mm 308 W/m2
10:00 14.7 °C 12.3 °C 1021.2 hPa WNW 9.7 km/h 14.5 km/h 86 % 0.0 mm 338 W/m2
10:05 14.8 °C 12.3 °C 1021.6 hPa NW 9.7 km/h 14.5 km/h 85 % 0.0 mm 315 W/m2
10:10 14.9 °C 11.9 °C 1021.6 hPa NNW 11.3 km/h 19.3 km/h 82 % 0.0 mm 531 W/m2
10:15 15.7 °C 12.6 °C 1021.6 hPa WNW 11.3 km/h 19.3 km/h 82 % 0.0 mm 670 W/m2
10:20 15.8 °C 12.4 °C 1021.6 hPa WNW 11.3 km/h 17.7 km/h 80 % 0.0 mm 531 W/m2
10:25 15.9 °C 12.7 °C 1021.6 hPa WNW 6.4 km/h 14.5 km/h 81 % 0.0 mm 582 W/m2
10:30 16.0 °C 12.0 °C 1021.6 hPa NW 11.3 km/h 19.3 km/h 77 % 0.0 mm 508 W/m2
10:35 15.8 °C 11.4 °C 1021.6 hPa WNW 8.0 km/h 19.3 km/h 75 % 0.0 mm 383 W/m2
10:40 15.9 °C 12.1 °C 1021.6 hPa WNW 8.0 km/h 16.1 km/h 78 % 0.0 mm 381 W/m2
10:45 15.9 °C 11.9 °C 1021.6 hPa WNW 8.0 km/h 16.1 km/h 77 % 0.0 mm 359 W/m2
10:50 16.0 °C 12.0 °C 1021.6 hPa WNW 8.0 km/h 16.1 km/h 77 % 0.0 mm 445 W/m2
10:55 16.2 °C 12.3 °C 1021.6 hPa WNW 9.7 km/h 16.1 km/h 78 % 0.0 mm 557 W/m2
11:00 16.1 °C 11.8 °C 1021.6 hPa WNW 12.9 km/h 17.7 km/h 76 % 0.0 mm 262 W/m2
11:05 15.5 °C 11.3 °C 1021.6 hPa WNW 6.4 km/h 17.7 km/h 76 % 0.0 mm 234 W/m2
11:10 15.4 °C 11.4 °C 1021.6 hPa West 8.0 km/h 16.1 km/h 77 % 0.0 mm 299 W/m2
11:15 15.5 °C 11.7 °C 1021.9 hPa West 6.4 km/h 14.5 km/h 78 % 0.0 mm 341 W/m2
11:20 15.7 °C 12.1 °C 1021.9 hPa WSW 9.7 km/h 14.5 km/h 79 % 0.0 mm 195 W/m2
11:25 15.3 °C 11.3 °C 1021.9 hPa WNW 6.4 km/h 16.1 km/h 77 % 0.0 mm 167 W/m2
11:30 15.1 °C 11.5 °C 1021.9 hPa NW 12.9 km/h 17.7 km/h 79 % 0.0 mm 193 W/m2
11:35 15.1 °C 11.5 °C 1021.9 hPa WNW 11.3 km/h 17.7 km/h 79 % 0.0 mm 260 W/m2
11:40 15.0 °C 11.8 °C 1021.9 hPa West 9.7 km/h 20.9 km/h 81 % 0.0 mm 218 W/m2
11:45 14.8 °C 11.8 °C 1022.2 hPa West 3.2 km/h 20.9 km/h 82 % 0.0 mm 172 W/m2
11:50 14.7 °C 11.6 °C 1022.2 hPa West 14.5 km/h 19.3 km/h 82 % 0.0 mm 193 W/m2
11:55 14.5 °C 12.0 °C 1022.2 hPa West 11.3 km/h 20.9 km/h 85 % 0.0 mm 199 W/m2
12:00 14.4 °C 12.1 °C 1022.2 hPa WSW 6.4 km/h 24.1 km/h 86 % 0.0 mm 221 W/m2
12:05 14.7 °C 12.2 °C 1022.2 hPa WNW 9.7 km/h 24.1 km/h 85 % 0.0 mm 276 W/m2
12:10 14.8 °C 12.3 °C 1022.2 hPa West 4.8 km/h 22.5 km/h 85 % 0.0 mm 301 W/m2
12:15 15.1 °C 12.4 °C 1022.2 hPa West 4.8 km/h 22.5 km/h 84 % 0.0 mm 334 W/m2
12:20 15.1 °C 12.1 °C 1022.2 hPa West 8.0 km/h 22.5 km/h 82 % 0.0 mm 362 W/m2
12:25 15.1 °C 12.4 °C 1022.2 hPa West 4.8 km/h 22.5 km/h 84 % 0.0 mm 404 W/m2
12:30 15.5 °C 13.0 °C 1022.6 hPa West 3.2 km/h 19.3 km/h 85 % 0.0 mm 288 W/m2
12:35 15.2 °C 12.5 °C 1022.6 hPa SW 6.4 km/h 19.3 km/h 84 % 0.0 mm 223 W/m2
12:40 14.8 °C 12.2 °C 1022.6 hPa West 4.8 km/h 19.3 km/h 84 % 0.0 mm 188 W/m2
12:45 14.6 °C 11.9 °C 1022.6 hPa WSW 17.7 km/h 20.9 km/h 84 % 0.0 mm 148 W/m2
12:50 14.3 °C 11.8 °C 1022.6 hPa WNW 9.7 km/h 20.9 km/h 85 % 0.0 mm 139 W/m2
12:55 14.2 °C 11.9 °C 1022.6 hPa WNW 9.7 km/h 19.3 km/h 86 % 0.0 mm 146 W/m2
13:00 14.2 °C 11.9 °C 1022.6 hPa WNW 12.9 km/h 16.1 km/h 86 % 0.0 mm 169 W/m2
13:05 14.3 °C 11.8 °C 1022.6 hPa WSW 8.0 km/h 16.1 km/h 85 % 0.0 mm 195 W/m2
13:10 14.4 °C 11.7 °C 1022.6 hPa WNW 14.5 km/h 19.3 km/h 84 % 0.0 mm 197 W/m2
13:15 14.5 °C 11.6 °C 1022.6 hPa NW 8.0 km/h 19.3 km/h 83 % 0.0 mm 211 W/m2
13:20 14.6 °C 11.5 °C 1022.6 hPa WNW 8.0 km/h 19.3 km/h 82 % 0.0 mm 195 W/m2
13:25 14.6 °C 11.1 °C 1022.6 hPa NW 6.4 km/h 17.7 km/h 80 % 0.0 mm 214 W/m2
13:30 14.8 °C 11.4 °C 1022.6 hPa WNW 6.4 km/h 17.7 km/h 80 % 0.0 mm 260 W/m2
13:35 15.0 °C 11.6 °C 1022.9 hPa West 4.8 km/h 17.7 km/h 80 % 0.0 mm 274 W/m2
13:40 15.0 °C 11.2 °C 1022.6 hPa WNW 14.5 km/h 19.3 km/h 78 % 0.0 mm 250 W/m2
13:45 14.8 °C 11.0 °C 1022.6 hPa WNW 14.5 km/h 19.3 km/h 78 % 0.0 mm 237 W/m2
13:50 14.7 °C 11.1 °C 1022.6 hPa West 6.4 km/h 22.5 km/h 79 % 0.0 mm 243 W/m2
13:55 14.8 °C 11.4 °C 1022.9 hPa WNW 8.0 km/h 22.5 km/h 80 % 0.0 mm 246 W/m2
14:00 14.8 °C 11.2 °C 1022.6 hPa NW 8.0 km/h 20.9 km/h 79 % 0.0 mm 281 W/m2
14:05 14.8 °C 11.4 °C 1022.9 hPa West 11.3 km/h 20.9 km/h 80 % 0.0 mm 285 W/m2
14:10 15.0 °C 12.0 °C 1022.9 hPa West 4.8 km/h 16.1 km/h 82 % 0.0 mm 297 W/m2
14:15 15.1 °C 11.9 °C 1022.6 hPa WNW 12.9 km/h 14.5 km/h 81 % 0.0 mm 417 W/m2
14:20 15.3 °C 12.1 °C 1022.6 hPa West 9.7 km/h 17.7 km/h 81 % 0.0 mm 524 W/m2
14:25 15.8 °C 12.3 °C 1022.6 hPa West 8.0 km/h 17.7 km/h 80 % 0.0 mm 548 W/m2
14:30 16.1 °C 12.4 °C 1022.6 hPa NW 11.3 km/h 17.7 km/h 79 % 0.0 mm 489 W/m2
14:35 16.4 °C 12.5 °C 1022.6 hPa West 17.7 km/h 17.7 km/h 78 % 0.0 mm 506 W/m2
14:40 16.3 °C 12.7 °C 1022.6 hPa Calm   20.9 km/h 79 % 0.0 mm 494 W/m2
14:45 16.3 °C 12.0 °C 1022.6 hPa NW 8.0 km/h 20.9 km/h 76 % 0.0 mm 527 W/m2
14:50 16.6 °C 12.5 °C 1022.2 hPa North 9.7 km/h 19.3 km/h 77 % 0.0 mm 541 W/m2
14:55 16.6 °C 12.5 °C 1022.2 hPa WNW 1.6 km/h 20.9 km/h 77 % 0.0 mm 515 W/m2
15:00 16.8 °C 12.5 °C 1022.2 hPa West 12.9 km/h 20.9 km/h 76 % 0.0 mm 650 W/m2
15:05 17.4 °C 13.2 °C 1022.2 hPa WNW 9.7 km/h 16.1 km/h 76 % 0.0 mm 557 W/m2
15:10 17.1 °C 12.2 °C 1022.2 hPa WNW 8.0 km/h 16.1 km/h 73 % 0.0 mm 738 W/m2
15:15 17.0 °C 12.5 °C 1022.2 hPa WNW 6.4 km/h 17.7 km/h 75 % 0.0 mm 513 W/m2
15:20 17.1 °C 12.2 °C 1022.2 hPa WNW 4.8 km/h 17.7 km/h 73 % 0.0 mm 664 W/m2
15:25 16.7 °C 11.9 °C 1022.2 hPa West 9.7 km/h 16.1 km/h 73 % 0.0 mm 401 W/m2
15:30 16.3 °C 11.8 °C 1022.2 hPa West 14.5 km/h 16.1 km/h 75 % 0.0 mm 374 W/m2
15:35 15.8 °C 11.8 °C 1022.6 hPa WNW 12.9 km/h 19.3 km/h 77 % 0.0 mm 392 W/m2
15:40 15.6 °C 11.6 °C 1022.2 hPa West 1.6 km/h 19.3 km/h 77 % 0.0 mm 366 W/m2
15:45 15.7 °C 11.7 °C 1022.2 hPa West 12.9 km/h 22.5 km/h 77 % 0.0 mm 387 W/m2
15:50 15.6 °C 11.5 °C 1022.2 hPa West 9.7 km/h 22.5 km/h 77 % 0.0 mm 373 W/m2
15:55 15.5 °C 11.9 °C 1022.2 hPa WNW 16.1 km/h 22.5 km/h 79 % 0.0 mm 343 W/m2
16:00 15.4 °C 11.8 °C 1022.2 hPa WNW 3.2 km/h 22.5 km/h 79 % 0.0 mm 348 W/m2
16:05 16.3 °C 12.6 °C 1022.2 hPa West 12.9 km/h 24.1 km/h 79 % 0.0 mm 1102 W/m2
16:10 16.3 °C 12.0 °C 1022.2 hPa West 14.5 km/h 24.1 km/h 76 % 0.0 mm 341 W/m2
16:15 15.6 °C 11.4 °C 1022.2 hPa West 6.4 km/h 24.1 km/h 76 % 0.0 mm 214 W/m2
16:20 15.2 °C 11.2 °C 1022.2 hPa West 14.5 km/h 22.5 km/h 77 % 0.0 mm 241 W/m2
16:25 15.2 °C 12.0 °C 1022.2 hPa WSW 20.9 km/h 22.5 km/h 81 % 0.0 mm 292 W/m2
16:30 15.3 °C 12.0 °C 1022.2 hPa WNW 11.3 km/h 20.9 km/h 81 % 0.0 mm 353 W/m2
16:35 15.6 °C 12.1 °C 1022.2 hPa SW 6.4 km/h 20.9 km/h 80 % 0.0 mm 376 W/m2
16:40 15.8 °C 12.4 °C 1022.2 hPa West 3.2 km/h 19.3 km/h 80 % 0.0 mm 492 W/m2
16:45 16.3 °C 12.1 °C 1022.2 hPa West 14.5 km/h 25.7 km/h 76 % 0.0 mm 376 W/m2
16:50 15.7 °C 12.0 °C 1022.2 hPa West 4.8 km/h 25.7 km/h 79 % 0.0 mm 629 W/m2
16:55 16.2 °C 12.1 °C 1022.2 hPa WSW 20.9 km/h 25.7 km/h 77 % 0.0 mm 756 W/m2
17:00 16.2 °C 12.2 °C 1022.2 hPa WNW 9.7 km/h 25.7 km/h 77 % 0.0 mm 803 W/m2
17:05 16.0 °C 12.2 °C 1021.9 hPa West 9.7 km/h 29.0 km/h 78 % 0.0 mm 758 W/m2
17:10 15.9 °C 12.1 °C 1022.2 hPa West 6.4 km/h 29.0 km/h 78 % 0.0 mm 392 W/m2
17:15 15.9 °C 12.1 °C 1022.2 hPa West 12.9 km/h 25.7 km/h 78 % 0.0 mm 322 W/m2
17:20 15.8 °C 12.0 °C 1022.2 hPa West 9.7 km/h 22.5 km/h 78 % 0.0 mm 216 W/m2
17:25 15.4 °C 11.6 °C 1022.2 hPa West 17.7 km/h 22.5 km/h 78 % 0.0 mm 306 W/m2
17:30 15.3 °C 11.5 °C 1022.2 hPa WNW 8.0 km/h 20.9 km/h 78 % 0.0 mm 158 W/m2
17:35 15.4 °C 11.8 °C 1021.9 hPa West 20.9 km/h 24.1 km/h 79 % 0.0 mm 262 W/m2
17:40 15.4 °C 11.4 °C 1022.2 hPa West 8.0 km/h 24.1 km/h 77 % 0.0 mm 587 W/m2
17:45 15.4 °C 11.4 °C 1022.2 hPa WNW 12.9 km/h 25.7 km/h 77 % 0.0 mm 204 W/m2
17:50 15.4 °C 11.6 °C 1021.9 hPa WSW 4.8 km/h 27.4 km/h 78 % 0.0 mm 531 W/m2
17:55 15.4 °C 11.8 °C 1021.9 hPa West 8.0 km/h 27.4 km/h 79 % 0.0 mm 515 W/m2
18:00 15.7 °C 12.1 °C 1021.9 hPa West 8.0 km/h 27.4 km/h 79 % 0.0 mm 497 W/m2
18:10 15.8 °C 11.8 °C 1021.9 hPa WNW 17.7 km/h 27.4 km/h 77 % 0.0 mm 471 W/m2
18:15 15.8 °C 11.8 °C 1022.2 hPa WSW 17.7 km/h 25.7 km/h 77 % 0.0 mm 454 W/m2
18:20 15.4 °C 11.4 °C 1021.9 hPa WNW 11.3 km/h 25.7 km/h 77 % 0.0 mm 445 W/m2
18:25 15.5 °C 11.7 °C 1021.9 hPa NW 12.9 km/h 24.1 km/h 78 % 0.0 mm 427 W/m2
18:30 15.4 °C 11.8 °C 1022.2 hPa WNW 8.0 km/h 24.1 km/h 79 % 0.0 mm 411 W/m2
18:35 15.6 °C 12.0 °C 1022.2 hPa West 6.4 km/h 24.1 km/h 79 % 0.0 mm 399 W/m2
18:40 15.8 °C 12.3 °C 1022.2 hPa West 6.4 km/h 14.5 km/h 80 % 0.0 mm 369 W/m2
18:45 15.5 °C 11.7 °C 1022.2 hPa West 9.7 km/h 19.3 km/h 78 % 0.0 mm 366 W/m2
18:50 15.4 °C 12.0 °C 1021.9 hPa SSW 4.8 km/h 20.9 km/h 80 % 0.0 mm 353 W/m2
18:55 15.6 °C 12.0 °C 1021.9 hPa WSW 6.4 km/h 20.9 km/h 79 % 0.0 mm 338 W/m2
19:00 15.6 °C 12.1 °C 1021.9 hPa NW 8.0 km/h 16.1 km/h 80 % 0.0 mm 325 W/m2
19:05 15.4 °C 12.0 °C 1021.9 hPa West 9.7 km/h 19.3 km/h 80 % 0.0 mm 311 W/m2
19:15 15.3 °C 11.8 °C 1021.9 hPa WNW 4.8 km/h 14.5 km/h 80 % 0.0 mm 278 W/m2
19:20 15.3 °C 12.0 °C 1021.9 hPa West 6.4 km/h 16.1 km/h 81 % 0.0 mm 262 W/m2
19:25 15.4 °C 12.3 °C 1021.9 hPa West 17.7 km/h 17.7 km/h 82 % 0.0 mm 248 W/m2
19:30 15.2 °C 12.1 °C 1021.9 hPa West 8.0 km/h 17.7 km/h 82 % 0.0 mm 232 W/m2
19:35 15.0 °C 12.0 °C 1021.9 hPa West 4.8 km/h 19.3 km/h 82 % 0.0 mm 218 W/m2
19:40 14.7 °C 12.0 °C 1021.9 hPa West 6.4 km/h 19.3 km/h 84 % 0.0 mm 204 W/m2
19:45 14.6 °C 11.9 °C 1021.9 hPa SW 6.4 km/h 22.5 km/h 84 % 0.0 mm 190 W/m2
19:50 14.6 °C 12.1 °C 1021.9 hPa WSW 6.4 km/h 22.5 km/h 85 % 0.0 mm 172 W/m2
19:55 14.5 °C 12.0 °C 1021.9 hPa West 6.4 km/h 19.3 km/h 85 % 0.0 mm 158 W/m2
20:00 14.5 °C 12.0 °C 1021.9 hPa WSW 6.4 km/h 12.9 km/h 85 % 0.0 mm 148 W/m2
20:05 14.3 °C 11.8 °C 1021.9 hPa West 4.8 km/h 14.5 km/h 85 % 0.0 mm 135 W/m2
20:10 14.2 °C 11.9 °C 1022.2 hPa WNW 6.4 km/h 19.3 km/h 86 % 0.0 mm 113 W/m2
20:15 14.1 °C 12.0 °C 1022.2 hPa West 8.0 km/h 19.3 km/h 87 % 0.0 mm 97 W/m2
20:20 14.1 °C 11.9 °C 1022.2 hPa West 11.3 km/h 19.3 km/h 87 % 0.0 mm 67 W/m2
20:25 13.9 °C 11.8 °C 1022.2 hPa WNW 6.4 km/h 16.1 km/h 87 % 0.0 mm 40 W/m2
20:30 13.8 °C 11.7 °C 1022.2 hPa West 8.0 km/h 12.9 km/h 87 % 0.0 mm 35 W/m2
20:35 13.7 °C 11.7 °C 1022.2 hPa WNW 8.0 km/h 14.5 km/h 88 % 0.0 mm 28 W/m2
20:40 13.5 °C 11.6 °C 1022.2 hPa WNW 6.4 km/h 14.5 km/h 88 % 0.0 mm 25 W/m2
20:45 13.3 °C 11.2 °C 1022.6 hPa WNW 4.8 km/h 12.9 km/h 87 % 0.0 mm 28 W/m2
20:50 13.3 °C 11.3 °C 1022.6 hPa West 4.8 km/h 12.9 km/h 88 % 0.0 mm 37 W/m2
20:55 13.4 °C 11.3 °C 1022.6 hPa WNW 12.9 km/h 16.1 km/h 87 % 0.0 mm 21 W/m2
21:00 13.4 °C 11.3 °C 1022.6 hPa NW 3.2 km/h 16.1 km/h 87 % 0.0 mm 16 W/m2
21:05 13.2 °C 11.3 °C 1022.6 hPa West 6.4 km/h 12.9 km/h 88 % 0.0 mm 12 W/m2
21:10 13.2 °C 11.0 °C 1022.6 hPa WNW 6.4 km/h 12.9 km/h 87 % 0.0 mm 9 W/m2
21:15 13.1 °C 10.9 °C 1022.6 hPa NW 9.7 km/h 12.9 km/h 87 % 0.0 mm 7 W/m2
21:20 12.9 °C 10.9 °C 1022.6 hPa NW 1.6 km/h 9.7 km/h 88 % 0.0 mm 5 W/m2
21:25 12.7 °C 11.0 °C 1022.6 hPa Calm   9.7 km/h 89 % 0.0 mm 0 W/m2
21:30 12.6 °C 10.8 °C 1022.6 hPa NW 3.2 km/h 6.4 km/h 89 % 0.0 mm 0 W/m2
21:35 12.6 °C 11.0 °C 1022.6 hPa Calm   9.7 km/h 90 % 0.0 mm 0 W/m2
21:40 12.5 °C 10.9 °C 1022.6 hPa WNW 1.6 km/h 9.7 km/h 90 % 0.0 mm 0 W/m2
21:45 12.3 °C 10.7 °C 1022.9 hPa NW 1.6 km/h 9.7 km/h 90 % 0.0 mm 0 W/m2
21:50 12.2 °C 10.7 °C 1022.9 hPa WNW 1.6 km/h 6.4 km/h 91 % 0.0 mm 0 W/m2
21:55 12.1 °C 10.9 °C 1022.9 hPa WNW 1.6 km/h 4.8 km/h 92 % 0.0 mm 0 W/m2
22:00 12.0 °C 10.7 °C 1022.9 hPa Calm   4.8 km/h 92 % 0.0 mm 0 W/m2
22:05 11.8 °C 10.5 °C 1022.9 hPa WNW 1.6 km/h 4.8 km/h 92 % 0.0 mm 0 W/m2
22:10 11.7 °C 10.6 °C 1023.2 hPa Calm   6.4 km/h 93 % 0.0 mm 0 W/m2
22:15 11.6 °C 10.5 °C 1023.2 hPa WNW 1.6 km/h 6.4 km/h 93 % 0.0 mm 0 W/m2
22:20 11.4 °C 10.4 °C 1023.2 hPa Calm   4.8 km/h 93 % 0.0 mm 0 W/m2
22:25 11.2 °C 10.3 °C 1023.2 hPa WNW 1.6 km/h 3.2 km/h 94 % 0.0 mm 0 W/m2
22:30 11.1 °C 10.2 °C 1023.2 hPa Calm   6.4 km/h 94 % 0.0 mm 0 W/m2
22:35 11.0 °C 10.1 °C 1023.2 hPa Calm   6.4 km/h 94 % 0.0 mm 0 W/m2
22:40 10.9 °C 10.0 °C 1023.2 hPa WNW 3.2 km/h 4.8 km/h 94 % 0.0 mm 0 W/m2
22:45 10.8 °C 9.9 °C 1023.2 hPa WNW 4.8 km/h 8.0 km/h 94 % 0.0 mm 0 W/m2
22:50 10.8 °C 10.1 °C 1023.2 hPa Calm   8.0 km/h 95 % 0.0 mm 0 W/m2
22:55 10.9 °C 10.1 °C 1023.2 hPa Calm   4.8 km/h 95 % 0.0 mm 0 W/m2
23:00 11.2 °C 10.6 °C 1023.2 hPa Calm   6.4 km/h 96 % 0.0 mm 0 W/m2
23:05 11.2 °C 10.6 °C 1023.2 hPa Calm   6.4 km/h 96 % 0.0 mm 0 W/m2
23:10 11.2 °C 10.6 °C 1023.2 hPa Calm   1.6 km/h 96 % 0.0 mm 0 W/m2
23:15 11.1 °C 10.3 °C 1023.2 hPa Calm   1.6 km/h 95 % 0.0 mm 0 W/m2
23:20 11.2 °C 10.6 °C 1023.2 hPa Calm   1.6 km/h 96 % 0.0 mm 0 W/m2
23:25 11.1 °C 10.4 °C 1023.2 hPa Calm   6.4 km/h 96 % 0.0 mm 0 W/m2
23:30 11.1 °C 10.4 °C 1023.2 hPa Calm   6.4 km/h 96 % 0.0 mm 0 W/m2
23:35 10.9 °C 10.3 °C 1023.2 hPa Calm   4.8 km/h 96 % 0.0 mm 0 W/m2
23:40 10.8 °C 10.2 °C 1023.2 hPa NNE 1.6 km/h 6.4 km/h 96 % 0.0 mm 0 W/m2
23:45 10.7 °C 10.1 °C 1023.2 hPa North 3.2 km/h 8.0 km/h 96 % 0.0 mm 0 W/m2
23:50 10.9 °C 10.3 °C 1023.2 hPa Calm   8.0 km/h 96 % 0.0 mm 0 W/m2
23:55 11.0 °C 10.4 °C 1023.2 hPa NE 3.2 km/h 8.0 km/h 96 % 0.0 mm 0 W/m2
Avec l'autorisation de Weather Underground - 1.75 mb